Jupiter Inlet, Florida
Current Conditions -  °F | °C
As of 10:47 AM on Monday 24 Nov 2014 (Local Time) from KSUA Reporting Station
Broken Clouds Broken Clouds  
Wind Chill: 82°   Ceiling: 2000
Heat Index: 88°   Visibility: 7mi
Dew Point: 73°   Wind: 9mph
Humidity: 74%   Direction: 180°S
Pressure: 30.02"   Gusts: NA
Location:  26.9832°N, 80.1°W
Report Text: KSUA 241547Z 18008KT 7SM SCT012 BKN020 28/23 A3002
Loading
Personal Weather Stations






























Interactive Weather Map New forecast layout! Learn more

10-Day Weather Forecast

Advertisements
Track Severe Weather on mobile